createdAt,value
2022-12-24T00:01:35.485Z,9.92
2022-12-24T00:04:02.092Z,9.89
2022-12-24T00:06:28.462Z,9.88
2022-12-24T00:08:54.865Z,9.81
2022-12-24T00:11:21.865Z,9.87
2022-12-24T00:13:48.990Z,9.90
2022-12-24T00:16:15.822Z,9.88
2022-12-24T00:18:46.398Z,9.74
2022-12-24T00:21:14.761Z,9.79
2022-12-24T00:23:41.211Z,9.78
2022-12-24T00:26:07.827Z,9.63
2022-12-24T00:28:34.250Z,9.52
2022-12-24T00:31:06.700Z,9.48
2022-12-24T00:33:33.146Z,9.34
2022-12-24T00:35:59.573Z,9.31
2022-12-24T00:38:25.949Z,9.37
2022-12-24T00:40:52.282Z,9.31
2022-12-24T00:43:18.665Z,9.29
2022-12-24T00:45:45.097Z,9.25
2022-12-24T00:48:11.530Z,9.21
2022-12-24T00:50:37.904Z,9.17
2022-12-24T00:53:04.353Z,9.16
2022-12-24T00:55:30.792Z,9.16
2022-12-24T00:57:57.191Z,9.18
2022-12-24T01:00:23.571Z,9.28
2022-12-24T01:02:50.190Z,9.30
2022-12-24T01:05:20.576Z,9.37
2022-12-24T01:07:48.194Z,9.40
2022-12-24T01:10:17.894Z,9.36
2022-12-24T01:12:44.919Z,9.50
2022-12-24T01:15:12.642Z,9.40
2022-12-24T01:17:39.937Z,9.46
2022-12-24T01:20:09.261Z,9.44
2022-12-24T01:22:35.810Z,9.43
2022-12-24T01:25:02.179Z,9.39
2022-12-24T01:27:28.615Z,9.43
2022-12-24T01:29:54.990Z,9.37
2022-12-24T01:32:21.372Z,9.30
2022-12-24T01:34:47.745Z,9.42
2022-12-24T01:37:14.218Z,9.45
2022-12-24T01:39:40.667Z,9.38
2022-12-24T01:42:43.880Z,9.39
2022-12-24T01:45:47.931Z,9.42
2022-12-24T01:48:39.813Z,9.46
2022-12-24T01:51:33.852Z,9.50
2022-12-24T01:54:29.226Z,9.53
2022-12-24T01:57:04.480Z,9.54
2022-12-24T01:59:32.468Z,9.51
2022-12-24T02:02:00.049Z,9.49
2022-12-24T02:04:38.841Z,9.41
2022-12-24T02:07:05.657Z,9.39
2022-12-24T02:09:33.840Z,9.43
2022-12-24T02:12:00.942Z,9.42
2022-12-24T02:14:29.241Z,9.42
2022-12-24T02:17:36.360Z,9.41
2022-12-24T02:20:34.702Z,9.25
2022-12-24T02:23:38.083Z,9.18
2022-12-24T02:26:08.054Z,9.19
2022-12-24T02:28:56.923Z,9.25
2022-12-24T02:31:27.491Z,9.24
2022-12-24T02:34:06.308Z,9.12
2022-12-24T02:36:39.740Z,9.18
2022-12-24T02:39:11.569Z,9.28
2022-12-24T02:42:01.457Z,9.18
2022-12-24T02:44:30.306Z,9.11
2022-12-24T02:46:59.049Z,9.06
2022-12-24T02:49:25.519Z,9.16
2022-12-24T02:51:51.925Z,9.17
2022-12-24T02:54:18.808Z,9.08
2022-12-24T02:56:58.228Z,9.12
2022-12-24T02:59:42.481Z,9.10
2022-12-24T03:02:24.285Z,9.13
2022-12-24T03:04:53.554Z,9.12
2022-12-24T03:07:36.825Z,9.18
2022-12-24T03:10:15.382Z,9.13
2022-12-24T03:12:46.934Z,9.19
2022-12-24T03:15:17.208Z,9.19
2022-12-24T03:17:47.132Z,9.21
2022-12-24T03:20:19.233Z,9.20
2022-12-24T03:22:45.618Z,9.31
2022-12-24T03:25:12.006Z,9.25
2022-12-24T03:27:39.323Z,9.39
2022-12-24T03:30:12.604Z,9.38
2022-12-24T03:32:39.363Z,9.40
2022-12-24T03:35:08.338Z,9.40
2022-12-24T03:37:34.770Z,9.32
2022-12-24T03:40:01.370Z,9.27
2022-12-24T03:42:27.804Z,9.28
2022-12-24T03:44:54.181Z,9.12
2022-12-24T03:47:20.581Z,9.09
2022-12-24T03:49:46.926Z,9.03
2022-12-24T03:52:13.353Z,9.01
2022-12-24T03:54:39.822Z,8.90
2022-12-24T03:57:06.223Z,8.88
2022-12-24T03:59:32.638Z,8.82
2022-12-24T04:01:59.266Z,8.87
2022-12-24T04:04:26.107Z,8.79
2022-12-24T04:06:52.484Z,8.83
2022-12-24T04:09:19.680Z,8.75
2022-12-24T04:11:46.077Z,8.76
2022-12-24T04:14:12.413Z,8.74
2022-12-24T04:16:38.772Z,8.77
2022-12-24T04:19:05.246Z,8.77
2022-12-24T04:21:31.666Z,8.70
2022-12-24T04:23:58.031Z,8.60
2022-12-24T04:26:24.466Z,8.55
2022-12-24T04:28:50.926Z,8.53
2022-12-24T04:31:17.980Z,8.55
2022-12-24T04:33:45.415Z,8.68
2022-12-24T04:36:14.902Z,8.74
2022-12-24T04:38:41.268Z,8.68
2022-12-24T04:41:16.016Z,8.62
2022-12-24T04:43:47.379Z,8.62
2022-12-24T04:46:20.252Z,8.60
2022-12-24T04:48:49.395Z,8.52
2022-12-24T04:51:16.557Z,8.49
2022-12-24T04:53:43.653Z,8.46
2022-12-24T04:56:19.639Z,8.51
2022-12-24T04:58:46.131Z,8.48
2022-12-24T05:01:23.865Z,8.42
2022-12-24T05:03:51.451Z,8.40
2022-12-24T05:06:23.452Z,8.43
2022-12-24T05:08:50.203Z,8.30
2022-12-24T05:11:17.029Z,8.26
2022-12-24T05:13:47.432Z,8.21
2022-12-24T05:16:16.567Z,8.18
2022-12-24T05:18:43.370Z,8.17
2022-12-24T05:21:21.877Z,8.15
2022-12-24T05:24:07.662Z,8.13
2022-12-24T05:26:39.294Z,8.10
2022-12-24T05:29:07.436Z,8.07
2022-12-24T05:31:34.344Z,8.07
2022-12-24T05:34:01.863Z,8.05
2022-12-24T05:36:28.324Z,8.02
2022-12-24T05:38:54.770Z,8.01
2022-12-24T05:41:21.888Z,7.99
2022-12-24T05:43:48.377Z,8.06
2022-12-24T05:46:17.230Z,8.02
2022-12-24T05:48:43.671Z,8.05
2022-12-24T05:51:12.995Z,8.16
2022-12-24T05:53:40.512Z,8.25
2022-12-24T05:56:12.373Z,8.24
2022-12-24T05:58:39.801Z,8.35
2022-12-24T06:01:07.433Z,8.37
2022-12-24T06:03:34.625Z,8.39
2022-12-24T06:06:08.681Z,8.35
2022-12-24T06:08:36.412Z,8.41
2022-12-24T06:11:06.243Z,8.41
2022-12-24T06:13:33.544Z,8.47
2022-12-24T06:16:02.350Z,8.48
2022-12-24T06:18:30.737Z,8.46
2022-12-24T06:20:58.558Z,8.33
2022-12-24T06:23:25.627Z,8.32
2022-12-24T06:25:55.659Z,8.38
2022-12-24T06:28:22.009Z,8.42
2022-12-24T06:30:50.264Z,8.48
2022-12-24T06:33:17.543Z,8.46
2022-12-24T06:35:47.697Z,8.49
2022-12-24T06:38:15.306Z,8.46
2022-12-24T06:40:43.410Z,8.47
2022-12-24T06:43:10.431Z,8.53
2022-12-24T06:45:37.166Z,8.46
2022-12-24T06:48:03.835Z,8.42
2022-12-24T06:50:30.661Z,8.35
2022-12-24T06:52:57.024Z,8.36
2022-12-24T06:55:23.385Z,8.26
2022-12-24T06:57:58.048Z,8.28
2022-12-24T07:00:24.664Z,8.24
2022-12-24T07:02:52.295Z,8.28
2022-12-24T07:05:19.083Z,8.34
2022-12-24T07:07:45.506Z,8.40
2022-12-24T07:10:14.718Z,8.37
2022-12-24T07:12:41.645Z,8.51
2022-12-24T07:15:09.433Z,8.45
2022-12-24T07:17:36.041Z,8.49
2022-12-24T07:20:03.066Z,8.39
2022-12-24T07:22:29.493Z,8.47
2022-12-24T07:24:55.849Z,8.43
2022-12-24T07:27:23.262Z,8.45
2022-12-24T07:29:50.936Z,8.50
2022-12-24T07:32:17.421Z,8.46
2022-12-24T07:34:43.771Z,8.51
2022-12-24T07:37:10.141Z,8.49
2022-12-24T07:39:36.511Z,8.46
2022-12-24T07:42:05.490Z,8.52
2022-12-24T07:44:31.859Z,8.51
2022-12-24T07:46:58.353Z,8.48
2022-12-24T07:49:24.822Z,8.53
2022-12-24T07:51:51.282Z,8.51
2022-12-24T07:54:17.678Z,8.52
2022-12-24T07:56:44.208Z,8.52
2022-12-24T07:59:13.509Z,8.57
2022-12-24T08:01:40.444Z,8.50
2022-12-24T08:04:07.066Z,8.62
2022-12-24T08:06:33.649Z,8.71
2022-12-24T08:09:00.037Z,8.72
2022-12-24T08:11:26.465Z,8.77
2022-12-24T08:13:52.819Z,8.86
2022-12-24T08:16:19.224Z,8.85
2022-12-24T08:18:45.696Z,8.82
2022-12-24T08:21:12.071Z,8.81
2022-12-24T08:23:38.856Z,8.85
2022-12-24T08:26:09.449Z,8.90
2022-12-24T08:28:36.326Z,8.86
2022-12-24T08:31:02.864Z,8.91
2022-12-24T08:33:29.322Z,8.89
2022-12-24T08:35:56.308Z,8.89
2022-12-24T08:38:22.997Z,8.95
2022-12-24T08:40:49.946Z,8.90
2022-12-24T08:43:17.554Z,8.91
2022-12-24T08:45:44.251Z,8.91
2022-12-24T08:48:11.354Z,9.10
2022-12-24T08:50:41.612Z,9.17
2022-12-24T08:53:09.270Z,9.17
2022-12-24T08:55:36.260Z,9.19
2022-12-24T08:58:03.340Z,9.35
2022-12-24T09:00:29.734Z,9.34
2022-12-24T09:02:57.425Z,9.42
2022-12-24T09:05:23.896Z,9.45
2022-12-24T09:07:50.262Z,9.47
2022-12-24T09:10:17.184Z,9.53
2022-12-24T09:12:43.596Z,9.56
2022-12-24T09:15:10.396Z,9.63
2022-12-24T09:17:37.183Z,9.64
2022-12-24T09:20:06.722Z,9.63
2022-12-24T09:22:38.024Z,9.66
2022-12-24T09:25:06.211Z,9.63
2022-12-24T09:27:32.784Z,9.63
2022-12-24T09:29:59.181Z,9.62
2022-12-24T09:32:25.612Z,9.68
2022-12-24T09:34:51.984Z,9.72
2022-12-24T09:37:18.460Z,9.74
2022-12-24T09:39:44.922Z,9.74
2022-12-24T09:42:28.140Z,9.74
2022-12-24T09:45:15.793Z,9.73
2022-12-24T09:47:50.705Z,9.80
2022-12-24T09:50:32.211Z,9.84
2022-12-24T09:53:03.550Z,9.88
2022-12-24T09:55:42.857Z,9.91
2022-12-24T09:58:20.510Z,9.98
2022-12-24T10:00:50.057Z,10.03
2022-12-24T10:03:17.773Z,10.10
2022-12-24T10:05:55.374Z,10.23
2022-12-24T10:08:41.099Z,10.32
2022-12-24T10:11:17.353Z,10.32
2022-12-24T10:14:08.748Z,10.37
2022-12-24T10:16:52.588Z,10.36
2022-12-24T10:19:40.800Z,10.28
2022-12-24T10:22:16.189Z,10.34
2022-12-24T10:24:58.081Z,10.24
2022-12-24T10:27:30.771Z,10.25
2022-12-24T10:30:17.576Z,10.17
2022-12-24T10:32:44.416Z,10.22
2022-12-24T10:35:16.553Z,10.21
2022-12-24T10:37:44.919Z,10.20
2022-12-24T10:40:23.804Z,10.20
2022-12-24T10:42:51.678Z,10.16
2022-12-24T10:45:22.914Z,10.21
2022-12-24T10:47:55.205Z,10.23
2022-12-24T10:50:30.975Z,10.23
2022-12-24T10:53:07.018Z,10.25
2022-12-24T10:55:33.399Z,10.24
2022-12-24T10:58:07.295Z,10.30
2022-12-24T11:00:36.717Z,10.30
2022-12-24T11:03:34.075Z,10.23
2022-12-24T11:06:04.828Z,10.32
2022-12-24T11:08:31.594Z,10.31
2022-12-24T11:10:59.049Z,10.37
2022-12-24T11:13:57.263Z,10.39
2022-12-24T11:16:33.517Z,10.39
2022-12-24T11:19:02.996Z,10.28
2022-12-24T11:21:34.608Z,10.39
2022-12-24T11:24:13.359Z,10.29
2022-12-24T11:26:43.007Z,10.46
2022-12-24T11:29:16.836Z,10.58
2022-12-24T11:31:45.054Z,10.53
2022-12-24T11:34:31.675Z,10.51
2022-12-24T11:37:16.312Z,10.46
2022-12-24T11:39:52.279Z,10.43
2022-12-24T11:42:33.593Z,10.45
2022-12-24T11:45:03.045Z,10.41
2022-12-24T11:47:40.453Z,10.39
2022-12-24T11:50:28.739Z,10.41
2022-12-24T11:53:03.829Z,10.40
2022-12-24T11:55:48.355Z,10.30
2022-12-24T11:58:26.632Z,10.32
2022-12-24T12:01:15.766Z,10.42
2022-12-24T12:03:48.199Z,10.49
2022-12-24T12:06:28.857Z,10.65
2022-12-24T12:09:00.340Z,10.61
2022-12-24T12:11:28.847Z,10.69
2022-12-24T12:13:58.575Z,10.73
2022-12-24T12:17:01.222Z,10.67
2022-12-24T12:19:31.342Z,10.78
2022-12-24T12:21:59.209Z,10.81
2022-12-24T12:24:37.226Z,10.79
2022-12-24T12:27:13.729Z,10.79
2022-12-24T12:29:52.662Z,10.75
2022-12-24T12:32:41.291Z,10.58
2022-12-24T12:35:35.340Z,10.59
2022-12-24T12:38:05.768Z,10.54
2022-12-24T12:40:59.611Z,10.58
2022-12-24T12:43:58.599Z,10.49
2022-12-24T12:46:40.147Z,10.53
2022-12-24T12:49:12.258Z,10.52
2022-12-24T12:52:17.782Z,10.50
2022-12-24T12:54:59.476Z,10.50
2022-12-24T12:57:31.721Z,10.56
2022-12-24T13:00:05.323Z,10.55
2022-12-24T13:03:10.893Z,10.60
2022-12-24T13:05:52.574Z,10.69
2022-12-24T13:08:37.615Z,10.62
2022-12-24T13:11:13.152Z,10.64
2022-12-24T13:14:10.571Z,10.66
2022-12-24T13:17:16.029Z,10.72
2022-12-24T13:20:20.129Z,10.70
2022-12-24T13:23:23.514Z,10.69
2022-12-24T13:25:52.495Z,10.79
2022-12-24T13:28:24.970Z,10.66
2022-12-24T13:31:01.644Z,10.62
2022-12-24T13:33:37.169Z,10.64
2022-12-24T13:36:07.975Z,10.64
2022-12-24T13:38:40.505Z,10.71
2022-12-24T13:41:38.182Z,10.70
2022-12-24T13:44:15.949Z,10.70
2022-12-24T13:46:58.957Z,10.69
2022-12-24T13:49:38.194Z,10.74
2022-12-24T13:52:18.991Z,10.76
2022-12-24T13:54:50.220Z,10.67
2022-12-24T13:57:34.359Z,10.65
2022-12-24T14:00:04.278Z,10.63
2022-12-24T14:02:35.752Z,10.69
2022-12-24T14:05:08.599Z,10.61
2022-12-24T14:07:36.408Z,10.54
2022-12-24T14:10:06.186Z,10.56
2022-12-24T14:12:47.385Z,10.70
2022-12-24T14:15:45.262Z,10.48
2022-12-24T14:18:21.519Z,10.46
2022-12-24T14:20:53.380Z,10.43
2022-12-24T14:23:44.008Z,10.37
2022-12-24T14:26:19.348Z,10.29
2022-12-24T14:29:00.881Z,10.22
2022-12-24T14:31:28.017Z,10.18
2022-12-24T14:34:06.968Z,10.11
2022-12-24T14:36:33.691Z,10.04
2022-12-24T14:39:00.826Z,10.00
2022-12-24T14:41:39.255Z,9.93
2022-12-24T14:44:32.265Z,9.84
2022-12-24T14:47:19.432Z,9.81
2022-12-24T14:50:05.077Z,9.79
2022-12-24T14:53:09.296Z,9.74
2022-12-24T14:55:41.766Z,9.66
2022-12-24T14:58:28.704Z,9.64
2022-12-24T15:00:58.934Z,9.62
2022-12-24T15:03:28.709Z,9.62
2022-12-24T15:06:08.488Z,9.64
2022-12-24T15:08:55.154Z,9.60
2022-12-24T15:11:23.422Z,9.56
2022-12-24T15:13:54.124Z,9.41
2022-12-24T15:16:47.320Z,9.24
2022-12-24T15:19:44.607Z,9.12
2022-12-24T15:22:36.127Z,9.09
2022-12-24T15:25:02.521Z,9.01
2022-12-24T15:27:33.222Z,8.92
2022-12-24T15:30:14.559Z,8.93
2022-12-24T15:32:41.035Z,8.92
2022-12-24T15:35:28.262Z,8.92
2022-12-24T15:37:58.752Z,8.92
2022-12-24T15:40:25.679Z,8.91
2022-12-24T15:42:53.078Z,8.88
2022-12-24T15:45:29.556Z,8.86
2022-12-24T15:48:09.586Z,8.86
2022-12-24T15:50:43.112Z,8.81
2022-12-24T15:53:28.112Z,8.78
2022-12-24T15:56:35.346Z,8.79
2022-12-24T15:59:37.690Z,8.75
2022-12-24T16:02:33.930Z,8.72
2022-12-24T16:05:30.748Z,8.61
2022-12-24T16:08:24.017Z,8.52
2022-12-24T16:11:05.963Z,8.44
2022-12-24T16:13:41.903Z,8.25
2022-12-24T16:16:15.068Z,8.13
2022-12-24T16:18:56.494Z,8.01
2022-12-24T16:21:31.109Z,7.91
2022-12-24T16:24:06.754Z,7.85
2022-12-24T16:26:34.365Z,7.80
2022-12-24T16:29:00.902Z,7.82
2022-12-24T16:31:38.043Z,7.80
2022-12-24T16:34:05.501Z,7.75
2022-12-24T16:36:32.887Z,7.74
2022-12-24T16:39:18.339Z,7.71
2022-12-24T16:42:03.168Z,7.66
2022-12-24T16:44:29.747Z,7.62
2022-12-24T16:47:00.988Z,7.55
2022-12-24T16:49:28.842Z,7.49
2022-12-24T16:51:55.380Z,7.48
2022-12-24T16:54:22.011Z,7.52
2022-12-24T16:56:48.502Z,7.67
2022-12-24T16:59:17.448Z,7.81
2022-12-24T17:01:44.307Z,7.92
2022-12-24T17:04:10.770Z,7.89
2022-12-24T17:06:37.434Z,7.89
2022-12-24T17:09:04.331Z,7.84
2022-12-24T17:11:30.747Z,7.89
2022-12-24T17:13:57.310Z,7.85
2022-12-24T17:16:23.777Z,7.89
2022-12-24T17:18:52.151Z,7.93
2022-12-24T17:21:19.453Z,8.11
2022-12-24T17:23:46.693Z,7.99
2022-12-24T17:26:15.361Z,7.83
2022-12-24T17:28:42.971Z,7.74
2022-12-24T17:31:16.211Z,7.67
2022-12-24T17:33:43.581Z,7.63
2022-12-24T17:36:10.517Z,7.56
2022-12-24T17:38:37.365Z,7.45
2022-12-24T17:41:10.474Z,7.43
2022-12-24T17:43:37.986Z,7.46
2022-12-24T17:46:13.195Z,7.58
2022-12-24T17:48:39.649Z,7.57
2022-12-24T17:51:08.175Z,7.66
2022-12-24T17:53:35.859Z,7.73
2022-12-24T17:56:02.586Z,7.70
2022-12-24T17:58:29.884Z,7.72
2022-12-24T18:00:57.262Z,7.66
2022-12-24T18:03:24.550Z,7.76
2022-12-24T18:05:51.970Z,7.79
2022-12-24T18:08:19.103Z,7.87
2022-12-24T18:10:46.434Z,8.06
2022-12-24T18:13:19.135Z,8.07
2022-12-24T18:15:46.037Z,8.18
2022-12-24T18:18:12.552Z,8.21
2022-12-24T18:20:45.964Z,8.26
2022-12-24T18:23:12.538Z,8.21
2022-12-24T18:25:39.215Z,8.38
2022-12-24T18:28:05.600Z,8.29
2022-12-24T18:30:31.979Z,8.30
2022-12-24T18:33:00.301Z,8.22
2022-12-24T18:35:26.818Z,8.17
2022-12-24T18:37:54.027Z,8.13
2022-12-24T18:40:20.596Z,8.09
2022-12-24T18:42:47.063Z,8.04
2022-12-24T18:45:13.563Z,8.00
2022-12-24T18:47:40.045Z,7.91
2022-12-24T18:50:07.528Z,7.82
2022-12-24T18:52:35.121Z,7.84
2022-12-24T18:55:01.534Z,7.81
2022-12-24T18:57:28.170Z,7.83
2022-12-24T18:59:55.814Z,7.78
2022-12-24T19:02:22.286Z,7.79
2022-12-24T19:04:48.875Z,7.84
2022-12-24T19:07:15.440Z,7.85
2022-12-24T19:09:41.859Z,7.87
2022-12-24T19:12:08.297Z,7.92
2022-12-24T19:14:34.692Z,7.96
2022-12-24T19:17:01.316Z,7.99
2022-12-24T19:19:27.781Z,7.96
2022-12-24T19:21:54.145Z,8.02
2022-12-24T19:24:20.542Z,7.96
2022-12-24T19:26:48.634Z,7.91
2022-12-24T19:29:15.178Z,7.96
2022-12-24T19:31:47.493Z,7.94
2022-12-24T19:34:14.372Z,7.83
2022-12-24T19:36:40.918Z,7.85
2022-12-24T19:39:07.621Z,7.91
2022-12-24T19:41:34.170Z,7.86
2022-12-24T19:44:02.009Z,7.83
2022-12-24T19:46:31.594Z,7.92
2022-12-24T19:49:00.988Z,7.98
2022-12-24T19:51:29.229Z,7.81
2022-12-24T19:53:57.617Z,7.91
2022-12-24T19:56:25.825Z,7.86
2022-12-24T19:58:52.806Z,7.81
2022-12-24T20:01:22.545Z,7.83
2022-12-24T20:03:50.275Z,7.83
2022-12-24T20:06:18.184Z,7.77
2022-12-24T20:08:44.606Z,7.82
2022-12-24T20:11:14.097Z,7.77
2022-12-24T20:13:41.656Z,7.78
2022-12-24T20:16:14.914Z,7.83
2022-12-24T20:18:41.470Z,7.88
2022-12-24T20:21:10.064Z,7.84
2022-12-24T20:23:41.025Z,7.95
2022-12-24T20:26:11.707Z,7.84
2022-12-24T20:28:38.561Z,7.84
2022-12-24T20:31:13.637Z,7.77
2022-12-24T20:33:40.697Z,7.69
2022-12-24T20:36:08.250Z,7.62
2022-12-24T20:38:35.009Z,7.60
2022-12-24T20:41:01.365Z,7.62
2022-12-24T20:43:32.478Z,7.62
2022-12-24T20:46:02.915Z,7.56
2022-12-24T20:48:30.078Z,7.50
2022-12-24T20:50:56.963Z,7.51
2022-12-24T20:53:23.350Z,7.56
2022-12-24T20:55:50.972Z,7.51
2022-12-24T20:58:18.192Z,7.54
2022-12-24T21:00:46.648Z,7.53
2022-12-24T21:03:17.001Z,7.55
2022-12-24T21:05:44.700Z,7.59
2022-12-24T21:08:13.257Z,7.51
2022-12-24T21:10:39.816Z,7.47
2022-12-24T21:13:06.714Z,7.46
2022-12-24T21:15:38.720Z,7.45
2022-12-24T21:18:11.483Z,7.41
2022-12-24T21:20:41.857Z,7.40
2022-12-24T21:23:09.584Z,7.35
2022-12-24T21:25:36.103Z,7.38
2022-12-24T21:28:02.599Z,7.28
2022-12-24T21:30:29.266Z,7.26
2022-12-24T21:32:55.765Z,7.19
2022-12-24T21:35:22.184Z,7.26
2022-12-24T21:37:48.586Z,7.20
2022-12-24T21:40:15.106Z,7.09
2022-12-24T21:42:41.845Z,7.21
2022-12-24T21:45:09.193Z,7.27
2022-12-24T21:47:36.828Z,7.25
2022-12-24T21:50:23.833Z,7.29
2022-12-24T21:53:13.270Z,7.33
2022-12-24T21:55:39.844Z,7.33
2022-12-24T21:58:06.257Z,7.40
2022-12-24T22:00:32.693Z,7.44
2022-12-24T22:02:59.409Z,7.48
2022-12-24T22:05:27.091Z,7.54
2022-12-24T22:08:13.124Z,7.60
2022-12-24T22:11:03.919Z,7.72
2022-12-24T22:13:31.533Z,7.74
2022-12-24T22:15:58.038Z,7.87
2022-12-24T22:18:27.151Z,7.92
2022-12-24T22:20:57.737Z,7.98
2022-12-24T22:23:24.314Z,8.02
2022-12-24T22:25:50.875Z,7.99
2022-12-24T22:28:17.668Z,8.10
2022-12-24T22:30:44.226Z,8.04
2022-12-24T22:33:11.169Z,8.08
2022-12-24T22:35:41.397Z,8.12
2022-12-24T22:38:08.884Z,8.02
2022-12-24T22:40:35.440Z,7.99
2022-12-24T22:43:01.850Z,8.14
2022-12-24T22:45:28.298Z,8.22
2022-12-24T22:47:55.487Z,8.18
2022-12-24T22:50:22.194Z,8.18
2022-12-24T22:52:48.607Z,8.22
2022-12-24T22:55:15.207Z,8.30
2022-12-24T22:57:41.775Z,8.28
2022-12-24T23:00:14.837Z,8.24
2022-12-24T23:02:41.642Z,8.29
2022-12-24T23:05:14.547Z,8.27
2022-12-24T23:07:40.959Z,8.26
2022-12-24T23:10:08.393Z,8.23
2022-12-24T23:12:53.685Z,8.21
2022-12-24T23:15:20.247Z,8.20
2022-12-24T23:17:48.960Z,8.08
2022-12-24T23:20:15.626Z,7.98
2022-12-24T23:22:42.038Z,8.12
2022-12-24T23:25:08.843Z,7.97
2022-12-24T23:27:35.262Z,8.04
2022-12-24T23:30:01.772Z,8.02
2022-12-24T23:32:28.221Z,7.93
2022-12-24T23:34:54.667Z,7.83
2022-12-24T23:37:21.119Z,7.79
2022-12-24T23:39:47.740Z,7.84
2022-12-24T23:42:14.155Z,7.80
2022-12-24T23:44:40.605Z,7.79
2022-12-24T23:47:07.190Z,7.76
2022-12-24T23:49:33.586Z,7.64
2022-12-24T23:52:00.216Z,7.73
2022-12-24T23:54:26.805Z,7.59
2022-12-24T23:56:53.469Z,7.62
2022-12-24T23:59:19.836Z,7.51
